createdAt,value
2023-03-01T00:01:03.006Z,10.67
2023-03-01T00:03:30.757Z,11.90
2023-03-01T00:05:59.997Z,10.90
2023-03-01T00:08:28.249Z,10.63
2023-03-01T00:11:03.854Z,11.00
2023-03-01T00:13:31.698Z,12.03
2023-03-01T00:15:59.550Z,11.43
2023-03-01T00:18:27.274Z,11.93
2023-03-01T00:20:56.406Z,11.60
2023-03-01T00:23:26.141Z,9.67
2023-03-01T00:25:54.569Z,10.30
2023-03-01T00:28:22.603Z,11.30
2023-03-01T00:30:50.447Z,10.60
2023-03-01T00:33:18.719Z,9.10
2023-03-01T00:35:46.631Z,10.90
2023-03-01T00:38:14.370Z,10.43
2023-03-01T00:40:43.414Z,11.23
2023-03-01T00:43:11.132Z,10.70
2023-03-01T00:45:38.864Z,11.13
2023-03-01T00:48:07.462Z,10.30
2023-03-01T00:50:35.180Z,9.47
2023-03-01T00:53:02.915Z,9.20
2023-03-01T00:55:30.893Z,9.20
2023-03-01T00:57:59.941Z,10.13
2023-03-01T01:00:28.727Z,9.40
2023-03-01T01:02:56.492Z,11.20
2023-03-01T01:05:24.218Z,8.80
2023-03-01T01:07:51.945Z,9.67
2023-03-01T01:10:19.880Z,8.37
2023-03-01T01:12:47.839Z,8.50
2023-03-01T01:15:17.512Z,8.77
2023-03-01T01:17:45.624Z,9.57
2023-03-01T01:20:13.856Z,10.63
2023-03-01T01:22:41.554Z,9.10
2023-03-01T01:25:10.291Z,9.83
2023-03-01T01:27:38.134Z,8.90
2023-03-01T01:30:07.265Z,7.83
2023-03-01T01:32:36.304Z,8.13
2023-03-01T01:35:04.185Z,9.10
2023-03-01T01:37:32.937Z,8.90
2023-03-01T01:40:01.083Z,9.90
2023-03-01T01:42:29.454Z,9.47
2023-03-01T01:45:27.716Z,9.33
2023-03-01T01:47:59.223Z,9.07
2023-03-01T01:50:28.072Z,8.13
2023-03-01T01:52:56.682Z,9.17
2023-03-01T01:55:29.012Z,8.50
2023-03-01T01:58:00.462Z,9.23
2023-03-01T02:00:30.625Z,9.35
2023-03-01T02:03:03.576Z,9.03
2023-03-01T02:05:38.416Z,9.37
2023-03-01T02:08:06.810Z,8.17
2023-03-01T02:10:36.507Z,7.83
2023-03-01T02:13:05.193Z,7.13
2023-03-01T02:15:34.677Z,8.70
2023-03-01T02:18:05.532Z,8.40
2023-03-01T02:20:39.346Z,8.43
2023-03-01T02:23:07.659Z,9.40
2023-03-01T02:25:44.032Z,8.10
2023-03-01T02:28:24.505Z,7.87
2023-03-01T02:31:24.838Z,7.83
2023-03-01T02:33:53.590Z,7.40
2023-03-01T02:36:23.530Z,8.20
2023-03-01T02:38:54.208Z,8.23
2023-03-01T02:41:23.003Z,8.43
2023-03-01T02:43:52.281Z,7.37
2023-03-01T02:46:23.037Z,7.67
2023-03-01T02:48:52.861Z,7.43
2023-03-01T02:51:43.650Z,6.53
2023-03-01T02:54:22.178Z,8.60
2023-03-01T02:56:50.480Z,8.10
2023-03-01T02:59:22.957Z,9.40
2023-03-01T03:01:50.711Z,7.20
2023-03-01T03:04:21.853Z,6.90
2023-03-01T03:06:51.254Z,7.60
2023-03-01T03:09:19.880Z,7.93
2023-03-01T03:11:48.013Z,7.03
2023-03-01T03:14:17.395Z,7.57
2023-03-01T03:16:48.567Z,7.00
2023-03-01T03:19:17.540Z,7.87
2023-03-01T03:21:45.532Z,7.83
2023-03-01T03:24:13.229Z,6.83
2023-03-01T03:26:40.914Z,7.03
2023-03-01T03:29:08.681Z,7.10
2023-03-01T03:31:36.590Z,6.87
2023-03-01T03:34:05.684Z,7.23
2023-03-01T03:36:34.423Z,7.10
2023-03-01T03:39:02.134Z,7.67
2023-03-01T03:41:29.827Z,7.90
2023-03-01T03:43:57.549Z,7.03
2023-03-01T03:46:25.332Z,6.70
2023-03-01T03:48:53.065Z,7.50
2023-03-01T03:51:23.665Z,7.10
2023-03-01T03:53:51.441Z,6.70
2023-03-01T03:56:19.189Z,6.93
2023-03-01T03:58:46.916Z,7.10
2023-03-01T04:01:14.664Z,8.00
2023-03-01T04:03:42.683Z,6.40
2023-03-01T04:06:10.389Z,7.17
2023-03-01T04:08:39.424Z,7.67
2023-03-01T04:11:21.578Z,6.60
2023-03-01T04:13:49.645Z,5.93
2023-03-01T04:16:18.606Z,6.80
2023-03-01T04:18:46.658Z,6.80
2023-03-01T04:21:14.435Z,6.80
2023-03-01T04:23:43.902Z,6.70
2023-03-01T04:26:11.744Z,6.57
2023-03-01T04:28:44.024Z,7.40
2023-03-01T04:31:18.331Z,7.20
2023-03-01T04:33:48.916Z,6.20
2023-03-01T04:36:18.522Z,6.70
2023-03-01T04:38:49.113Z,6.70
2023-03-01T04:41:18.836Z,6.20
2023-03-01T04:43:46.638Z,6.50
2023-03-01T04:46:16.749Z,6.40
2023-03-01T04:48:46.050Z,6.20
2023-03-01T04:51:14.856Z,7.20
2023-03-01T04:53:43.914Z,7.90
2023-03-01T04:56:16.863Z,6.70
2023-03-01T04:58:44.904Z,6.23
2023-03-01T05:01:16.988Z,6.10
2023-03-01T05:03:45.504Z,5.30
2023-03-01T05:06:13.850Z,5.70
2023-03-01T05:08:42.410Z,7.10
2023-03-01T05:11:10.903Z,6.90
2023-03-01T05:13:41.278Z,7.57
2023-03-01T05:16:12.299Z,7.20
2023-03-01T05:18:41.621Z,7.00
2023-03-01T05:21:11.999Z,6.70
2023-03-01T05:23:40.428Z,7.87
2023-03-01T05:26:16.068Z,6.43
2023-03-01T05:28:59.391Z,6.07
2023-03-01T05:31:27.238Z,6.72
2023-03-01T05:33:55.033Z,6.80
2023-03-01T05:36:22.854Z,7.47
2023-03-01T05:38:50.578Z,6.30
2023-03-01T05:41:18.822Z,6.63
2023-03-01T05:43:46.739Z,6.73
2023-03-01T05:46:16.231Z,6.77
2023-03-01T05:48:44.588Z,7.20
2023-03-01T05:51:12.995Z,7.10
2023-03-01T05:53:41.034Z,6.80
2023-03-01T05:56:09.214Z,6.03
2023-03-01T05:58:39.506Z,6.73
2023-03-01T06:01:07.314Z,6.67
2023-03-01T06:03:36.343Z,7.73
2023-03-01T06:06:04.142Z,6.00
2023-03-01T06:08:31.837Z,6.93
2023-03-01T06:10:59.534Z,5.60
2023-03-01T06:13:27.301Z,6.07
2023-03-01T06:15:55.073Z,7.17
2023-03-01T06:18:23.482Z,6.97
2023-03-01T06:20:56.670Z,6.47
2023-03-01T06:23:24.378Z,5.90
2023-03-01T06:25:54.229Z,6.00
2023-03-01T06:28:22.023Z,6.30
2023-03-01T06:30:50.111Z,7.40
2023-03-01T06:33:19.104Z,6.87
2023-03-01T06:35:46.855Z,6.77
2023-03-01T06:38:18.270Z,7.23
2023-03-01T06:40:46.381Z,8.30
2023-03-01T06:43:14.053Z,6.60
2023-03-01T06:45:42.746Z,6.60
2023-03-01T06:48:10.487Z,6.80
2023-03-01T06:50:41.421Z,5.90
2023-03-01T06:53:09.364Z,7.03
2023-03-01T06:55:38.395Z,9.30
2023-03-01T06:58:06.144Z,6.30
2023-03-01T07:00:34.677Z,5.47
2023-03-01T07:03:03.791Z,5.67
2023-03-01T07:05:32.199Z,7.33
2023-03-01T07:07:59.944Z,6.70
2023-03-01T07:10:27.802Z,6.27
2023-03-01T07:12:58.560Z,6.73
2023-03-01T07:15:26.909Z,7.17
2023-03-01T07:17:54.654Z,7.50
2023-03-01T07:20:25.437Z,7.40
2023-03-01T07:22:53.409Z,6.53
2023-03-01T07:25:21.232Z,8.70
2023-03-01T07:27:52.182Z,7.80
2023-03-01T07:30:22.544Z,7.60
2023-03-01T07:32:50.649Z,6.23
2023-03-01T07:35:19.763Z,6.93
2023-03-01T07:37:47.472Z,6.50
2023-03-01T07:40:15.238Z,7.00
2023-03-01T07:42:42.960Z,6.80
2023-03-01T07:45:11.724Z,8.37
2023-03-01T07:47:40.788Z,7.00
2023-03-01T07:50:09.691Z,7.30
2023-03-01T07:52:37.408Z,6.70
2023-03-01T07:55:05.540Z,6.53
2023-03-01T07:57:33.236Z,8.03
2023-03-01T08:00:00.956Z,6.70
2023-03-01T08:02:28.688Z,7.57
2023-03-01T08:04:57.729Z,7.23
2023-03-01T08:07:25.497Z,7.83
2023-03-01T08:09:53.186Z,8.33
2023-03-01T08:12:20.886Z,8.73
2023-03-01T08:14:48.594Z,9.07
2023-03-01T08:17:16.605Z,9.77
2023-03-01T08:19:45.543Z,9.80
2023-03-01T08:22:14.736Z,10.00
2023-03-01T08:24:42.541Z,11.80
2023-03-01T08:27:10.954Z,12.17
2023-03-01T08:29:38.685Z,12.17
2023-03-01T08:32:06.793Z,12.00
2023-03-01T08:34:36.445Z,14.60
2023-03-01T08:37:04.469Z,11.40
2023-03-01T08:39:33.653Z,11.80
2023-03-01T08:42:01.394Z,12.07
2023-03-01T08:44:29.201Z,13.13
2023-03-01T08:46:56.979Z,12.17
2023-03-01T08:49:25.514Z,10.20
2023-03-01T08:51:53.350Z,10.73
2023-03-01T08:54:22.719Z,9.53
2023-03-01T08:56:52.091Z,9.40
2023-03-01T08:59:20.373Z,8.77
2023-03-01T09:01:48.537Z,9.53
2023-03-01T09:04:17.147Z,9.30
2023-03-01T09:06:45.169Z,9.40
2023-03-01T09:09:17.024Z,9.63
2023-03-01T09:11:46.897Z,9.10
2023-03-01T09:14:16.481Z,8.13
2023-03-01T09:16:44.826Z,9.30
2023-03-01T09:19:13.106Z,11.00
2023-03-01T09:21:41.421Z,9.70
2023-03-01T09:24:15.023Z,10.20
2023-03-01T09:26:42.842Z,9.33
2023-03-01T09:29:11.435Z,9.80
2023-03-01T09:31:40.605Z,9.53
2023-03-01T09:34:08.888Z,9.57
2023-03-01T09:36:36.985Z,8.60
2023-03-01T09:39:06.773Z,8.13
2023-03-01T09:41:48.088Z,7.60
2023-03-01T09:44:27.880Z,7.30
2023-03-01T09:46:58.969Z,7.07
2023-03-01T09:49:29.270Z,7.80
2023-03-01T09:52:01.578Z,6.37
2023-03-01T09:54:29.516Z,6.70
2023-03-01T09:57:13.505Z,6.00
2023-03-01T10:00:01.685Z,6.80
2023-03-01T10:02:40.159Z,6.73
2023-03-01T10:05:20.910Z,7.73
2023-03-01T10:08:00.722Z,7.13
2023-03-01T10:10:31.550Z,6.60
2023-03-01T10:13:01.861Z,7.17
2023-03-01T10:15:38.015Z,6.60
2023-03-01T10:18:11.952Z,6.30
2023-03-01T10:20:48.632Z,7.73
2023-03-01T10:23:16.388Z,8.07
2023-03-01T10:25:55.029Z,6.57
2023-03-01T10:28:29.062Z,6.83
2023-03-01T10:30:58.733Z,6.67
2023-03-01T10:33:31.174Z,7.27
2023-03-01T10:35:59.082Z,8.30
2023-03-01T10:38:27.027Z,6.50
2023-03-01T10:40:58.934Z,5.87
2023-03-01T10:43:28.373Z,5.60
2023-03-01T10:45:56.202Z,6.87
2023-03-01T10:48:27.155Z,6.50
2023-03-01T10:51:08.340Z,7.37
2023-03-01T10:53:39.150Z,7.10
2023-03-01T10:56:09.378Z,8.23
2023-03-01T10:58:38.870Z,6.63
2023-03-01T11:01:25.542Z,6.27
2023-03-01T11:04:12.515Z,6.27
2023-03-01T11:06:43.322Z,6.73
2023-03-01T11:09:19.977Z,5.80
2023-03-01T11:11:48.319Z,5.90
2023-03-01T11:14:27.501Z,6.50
2023-03-01T11:17:03.352Z,6.30
2023-03-01T11:19:31.348Z,7.20
2023-03-01T11:22:05.005Z,6.30
2023-03-01T11:24:38.930Z,6.20
2023-03-01T11:27:14.380Z,6.70
2023-03-01T11:29:49.124Z,6.03
2023-03-01T11:32:17.675Z,6.70
2023-03-01T11:34:50.992Z,5.70
2023-03-01T11:37:35.661Z,6.60
2023-03-01T11:40:13.350Z,7.43
2023-03-01T11:42:50.436Z,7.00
2023-03-01T11:45:18.208Z,5.93
2023-03-01T11:47:57.764Z,5.57
2023-03-01T11:50:34.689Z,5.87
2023-03-01T11:53:31.349Z,5.60
2023-03-01T11:56:11.020Z,5.23
2023-03-01T11:58:50.201Z,5.70
2023-03-01T12:01:31.858Z,6.70
2023-03-01T12:04:28.743Z,6.30
2023-03-01T12:06:59.645Z,5.80
2023-03-01T12:09:46.163Z,6.30
2023-03-01T12:12:38.686Z,6.80
2023-03-01T12:15:35.184Z,5.37
2023-03-01T12:18:22.186Z,5.77
2023-03-01T12:21:00.700Z,6.93
2023-03-01T12:23:52.194Z,6.77
2023-03-01T12:26:29.540Z,5.50
2023-03-01T12:29:17.290Z,5.87
2023-03-01T12:32:07.225Z,6.57
2023-03-01T12:34:55.746Z,5.13
2023-03-01T12:37:34.148Z,6.03
2023-03-01T12:40:23.965Z,6.43
2023-03-01T12:43:04.623Z,5.13
2023-03-01T12:45:45.226Z,6.27
2023-03-01T12:48:36.902Z,5.60
2023-03-01T12:51:09.393Z,5.43
2023-03-01T12:53:40.964Z,5.67
2023-03-01T12:56:12.881Z,5.73
2023-03-01T12:58:57.509Z,5.93
2023-03-01T13:01:39.267Z,5.70
2023-03-01T13:04:25.785Z,5.90
2023-03-01T13:07:06.387Z,5.60
2023-03-01T13:09:44.453Z,5.43
2023-03-01T13:12:47.683Z,6.33
2023-03-01T13:15:35.637Z,6.55
2023-03-01T13:18:05.969Z,6.00
2023-03-01T13:20:46.643Z,6.83
2023-03-01T13:23:26.765Z,5.87
2023-03-01T13:26:07.506Z,7.17
2023-03-01T13:28:49.011Z,6.00
2023-03-01T13:31:59.575Z,6.63
2023-03-01T13:34:48.958Z,7.10
2023-03-01T13:37:35.607Z,6.37
2023-03-01T13:40:20.506Z,6.53
2023-03-01T13:42:59.373Z,6.90
2023-03-01T13:45:40.022Z,6.30
2023-03-01T13:48:12.856Z,5.93
2023-03-01T13:50:51.166Z,6.13
2023-03-01T13:53:21.559Z,5.63
2023-03-01T13:55:52.990Z,6.00
2023-03-01T13:58:27.157Z,6.00
2023-03-01T14:01:00.362Z,6.30
2023-03-01T14:03:29.539Z,6.13
2023-03-01T14:06:14.677Z,5.77
2023-03-01T14:08:47.174Z,6.37
2023-03-01T14:11:54.617Z,6.47
2023-03-01T14:14:49.624Z,5.83
2023-03-01T14:17:35.724Z,6.57
2023-03-01T14:20:11.196Z,5.80
2023-03-01T14:22:44.116Z,6.50
2023-03-01T14:25:27.258Z,6.03
2023-03-01T14:28:05.777Z,6.30
2023-03-01T14:30:38.321Z,5.90
2023-03-01T14:33:08.446Z,5.33
2023-03-01T14:35:38.133Z,6.27
2023-03-01T14:38:07.310Z,6.43
2023-03-01T14:40:37.647Z,5.37
2023-03-01T14:43:13.211Z,5.93
2023-03-01T14:45:41.216Z,6.10
2023-03-01T14:48:09.837Z,6.20
2023-03-01T14:50:43.190Z,6.23
2023-03-01T14:53:20.249Z,5.77
2023-03-01T14:55:50.469Z,5.23
2023-03-01T14:58:22.218Z,5.63
2023-03-01T15:00:52.955Z,6.43
2023-03-01T15:03:27.562Z,6.07
2023-03-01T15:05:55.840Z,5.10
2023-03-01T15:08:27.493Z,5.17
2023-03-01T15:11:03.390Z,5.90
2023-03-01T15:13:34.080Z,5.50
2023-03-01T15:16:21.481Z,5.53
2023-03-01T15:18:51.039Z,5.80
2023-03-01T15:21:23.895Z,6.03
2023-03-01T15:23:54.942Z,6.50
2023-03-01T15:26:32.822Z,6.03
2023-03-01T15:29:02.220Z,6.30
2023-03-01T15:31:36.030Z,5.70
2023-03-01T15:34:11.978Z,6.33
2023-03-01T15:36:44.778Z,6.50
2023-03-01T15:39:39.099Z,6.20
2023-03-01T15:42:09.647Z,6.27
2023-03-01T15:44:43.869Z,6.23
2023-03-01T15:47:29.339Z,5.43
2023-03-01T15:50:02.478Z,6.00
2023-03-01T15:52:36.000Z,6.80
2023-03-01T15:55:08.171Z,5.50
2023-03-01T15:57:36.011Z,6.33
2023-03-01T16:00:12.129Z,5.53
2023-03-01T16:02:40.255Z,5.73
2023-03-01T16:05:15.585Z,5.73
2023-03-01T16:07:43.509Z,6.73
2023-03-01T16:10:13.439Z,5.87
2023-03-01T16:12:41.171Z,7.47
2023-03-01T16:15:18.366Z,6.40
2023-03-01T16:17:47.204Z,6.60
2023-03-01T16:20:27.349Z,6.60
2023-03-01T16:22:56.390Z,5.73
2023-03-01T16:25:25.494Z,5.30
2023-03-01T16:27:53.708Z,5.70
2023-03-01T16:30:23.458Z,6.10
2023-03-01T16:32:52.216Z,7.40
2023-03-01T16:35:22.469Z,5.90
2023-03-01T16:37:50.740Z,6.40
2023-03-01T16:40:21.748Z,5.37
2023-03-01T16:42:51.790Z,5.50
2023-03-01T16:45:24.648Z,6.60
2023-03-01T16:47:55.648Z,6.27
2023-03-01T16:50:23.879Z,5.90
2023-03-01T16:52:51.631Z,6.50
2023-03-01T16:55:19.533Z,6.00
2023-03-01T16:57:47.297Z,5.87
2023-03-01T17:00:18.719Z,6.43
2023-03-01T17:02:46.455Z,6.20
2023-03-01T17:05:14.474Z,5.67
2023-03-01T17:07:43.278Z,6.30
2023-03-01T17:10:12.333Z,5.63
2023-03-01T17:12:40.172Z,6.03
2023-03-01T17:15:08.830Z,6.73
2023-03-01T17:17:37.856Z,6.60
2023-03-01T17:20:06.391Z,6.80
2023-03-01T17:22:34.129Z,5.97
2023-03-01T17:25:01.933Z,7.87
2023-03-01T17:27:29.686Z,8.57
2023-03-01T17:29:57.543Z,7.20
2023-03-01T17:32:25.426Z,6.90
2023-03-01T17:34:54.553Z,6.57
2023-03-01T17:37:22.652Z,7.60
2023-03-01T17:39:50.492Z,6.63
2023-03-01T17:42:18.265Z,7.30
2023-03-01T17:44:46.136Z,7.03
2023-03-01T17:47:13.956Z,7.03
2023-03-01T17:49:41.674Z,8.03
2023-03-01T17:52:10.716Z,6.80
2023-03-01T17:54:38.488Z,7.47
2023-03-01T17:57:06.176Z,7.20
2023-03-01T17:59:37.058Z,8.67
2023-03-01T18:02:05.049Z,7.67
2023-03-01T18:04:33.298Z,5.80
2023-03-01T18:07:01.214Z,6.63
2023-03-01T18:09:30.518Z,7.37
2023-03-01T18:11:58.707Z,6.80
2023-03-01T18:14:29.729Z,6.70
2023-03-01T18:16:57.579Z,7.17
2023-03-01T18:19:25.354Z,6.70
2023-03-01T18:21:53.092Z,6.50
2023-03-01T18:24:20.902Z,7.10
2023-03-01T18:26:49.941Z,7.20
2023-03-01T18:29:17.712Z,7.17
2023-03-01T18:31:45.866Z,7.60
2023-03-01T18:34:13.766Z,7.37
2023-03-01T18:36:44.475Z,7.53
2023-03-01T18:39:17.767Z,8.02
2023-03-01T18:41:45.496Z,7.70
2023-03-01T18:44:14.647Z,7.30
2023-03-01T18:46:42.460Z,7.43
2023-03-01T18:49:11.552Z,7.60
2023-03-01T18:51:39.428Z,8.00
2023-03-01T18:54:07.722Z,7.70
2023-03-01T18:56:35.986Z,9.97
2023-03-01T18:59:04.012Z,8.53
2023-03-01T19:01:37.345Z,7.50
2023-03-01T19:04:06.352Z,8.73
2023-03-01T19:06:35.730Z,6.93
2023-03-01T19:09:04.190Z,8.23
2023-03-01T19:11:33.463Z,7.33
2023-03-01T19:14:02.104Z,8.00
2023-03-01T19:16:32.579Z,7.63
2023-03-01T19:19:03.974Z,7.60
2023-03-01T19:21:33.423Z,7.57
2023-03-01T19:24:03.864Z,7.03
2023-03-01T19:26:32.808Z,7.93
2023-03-01T19:29:01.282Z,8.40
2023-03-01T19:31:30.916Z,7.20
2023-03-01T19:34:10.390Z,7.50
2023-03-01T19:36:41.741Z,8.90
2023-03-01T19:39:11.131Z,7.50
2023-03-01T19:41:38.914Z,7.33
2023-03-01T19:44:08.553Z,8.03
2023-03-01T19:46:36.913Z,7.63
2023-03-01T19:49:05.238Z,8.40
2023-03-01T19:51:36.076Z,7.00
2023-03-01T19:54:06.492Z,7.90
2023-03-01T19:56:34.982Z,7.63
2023-03-01T19:59:04.387Z,8.60
2023-03-01T20:01:34.109Z,7.27
2023-03-01T20:04:02.307Z,7.43
2023-03-01T20:06:30.991Z,7.17
2023-03-01T20:09:02.329Z,8.63
2023-03-01T20:11:35.812Z,8.27
2023-03-01T20:14:06.578Z,7.47
2023-03-01T20:16:34.777Z,7.17
2023-03-01T20:19:03.228Z,7.20
2023-03-01T20:21:31.124Z,8.43
2023-03-01T20:23:58.856Z,7.53
2023-03-01T20:26:27.155Z,7.60
2023-03-01T20:28:57.832Z,6.93
2023-03-01T20:31:29.136Z,7.43
2023-03-01T20:33:58.155Z,7.77
2023-03-01T20:36:26.405Z,6.70
2023-03-01T20:38:54.308Z,7.17
2023-03-01T20:41:25.793Z,6.93
2023-03-01T20:43:56.734Z,7.10
2023-03-01T20:46:27.252Z,7.80
2023-03-01T20:48:55.039Z,7.23
2023-03-01T20:51:22.833Z,6.67
2023-03-01T20:53:50.679Z,7.53
2023-03-01T20:56:20.969Z,7.17
2023-03-01T20:58:49.047Z,6.87
2023-03-01T21:01:18.934Z,6.60
2023-03-01T21:03:48.346Z,7.00
2023-03-01T21:06:16.159Z,6.60
2023-03-01T21:08:44.265Z,6.53
2023-03-01T21:11:11.984Z,7.07
2023-03-01T21:13:41.620Z,8.00
2023-03-01T21:16:13.718Z,7.23
2023-03-01T21:18:42.099Z,7.20
2023-03-01T21:21:13.195Z,7.53
2023-03-01T21:23:43.078Z,6.90
2023-03-01T21:26:13.019Z,7.13
2023-03-01T21:28:41.977Z,8.00
2023-03-01T21:31:15.004Z,7.30
2023-03-01T21:33:46.225Z,7.03
2023-03-01T21:36:16.781Z,8.83
2023-03-01T21:38:47.148Z,8.40
2023-03-01T21:41:17.080Z,8.07
2023-03-01T21:43:46.521Z,8.60
2023-03-01T21:46:16.238Z,7.80
2023-03-01T21:48:45.759Z,7.70
2023-03-01T21:51:16.744Z,7.97
2023-03-01T21:53:44.834Z,7.70
2023-03-01T21:56:16.800Z,6.63
2023-03-01T21:58:44.704Z,8.40
2023-03-01T22:01:14.928Z,8.20
2023-03-01T22:03:45.955Z,7.63
2023-03-01T22:06:19.630Z,9.47
2023-03-01T22:08:48.656Z,7.80
2023-03-01T22:11:19.053Z,11.03
2023-03-01T22:13:47.533Z,9.27
2023-03-01T22:16:15.392Z,8.50
2023-03-01T22:18:43.176Z,7.73
2023-03-01T22:21:11.102Z,8.40
2023-03-01T22:23:41.175Z,9.23
2023-03-01T22:26:09.798Z,9.73
2023-03-01T22:28:38.049Z,9.43
2023-03-01T22:31:06.471Z,8.70
2023-03-01T22:33:37.054Z,7.73
2023-03-01T22:36:05.945Z,8.70
2023-03-01T22:38:33.693Z,8.67
2023-03-01T22:41:05.190Z,9.17
2023-03-01T22:43:33.940Z,9.07
2023-03-01T22:46:10.832Z,8.80
2023-03-01T22:48:38.872Z,8.33
2023-03-01T22:51:07.430Z,9.17
2023-03-01T22:53:38.140Z,9.80
2023-03-01T22:56:15.389Z,9.20
2023-03-01T22:58:43.266Z,9.23
2023-03-01T23:01:12.883Z,9.20
2023-03-01T23:03:41.003Z,8.73
2023-03-01T23:06:09.406Z,9.10
2023-03-01T23:08:37.661Z,8.30
2023-03-01T23:11:10.294Z,9.57
2023-03-01T23:13:39.899Z,9.00
2023-03-01T23:16:08.505Z,8.50
2023-03-01T23:18:36.750Z,8.63
2023-03-01T23:21:09.730Z,8.63
2023-03-01T23:23:37.464Z,9.70
2023-03-01T23:26:05.936Z,8.80
2023-03-01T23:28:33.998Z,9.97
2023-03-01T23:31:04.794Z,8.90
2023-03-01T23:33:37.684Z,10.80
2023-03-01T23:36:06.616Z,9.40
2023-03-01T23:38:34.626Z,10.27
2023-03-01T23:41:02.427Z,8.93
2023-03-01T23:43:30.369Z,8.70
2023-03-01T23:45:58.122Z,8.33
2023-03-01T23:48:27.264Z,8.70
2023-03-01T23:50:55.078Z,9.07
2023-03-01T23:53:23.093Z,8.70
2023-03-01T23:55:52.660Z,8.90
2023-03-01T23:58:28.231Z,10.43
